Atlantic Coast — WDD9171 — position and weather

sailwx.info

Track history (hours):
 
Tides and Currents Weather Stations Pressure Air Temp Water Temp Dewpoint Dewpoint Depression Visibility Wind Speed Wind Dir Waves Ship Positions

Atlantic Coast

Owner: DANN MARINE TOWING, CHESAPEAKE CITY, MD. More information available from US FCC via Universal Licensing System and Coast Guard Vessel Documentation Center.

Last reported at 2017-Dec-16 04:59 UTC. Time now 2017-Dec-16 05:14 UTC.
Position N 38°50' W 075°03'.

Length 30 m; draft 4.2 m.

Type: Tug. MMSI: 367307850.

Date/timePositionNaut miles runAvg speedWind from/ knotsBaromVisibWave heightAir tempDewpointWater temp
2017-Dec-16 04:59N 38°50' W 075°03'3 6.3
2017-Dec-16 04:30N 38°53' W 075°04'3 6.9
2017-Dec-16 04:00N 38°56' W 075°06'4 7.9
2017-Dec-16 03:30N 38°60' W 075°08'4 7.5
2017-Dec-16 03:00N 39°03' W 075°10'4 7.1
2017-Dec-16 02:30N 39°06' W 075°12'3 6.9
2017-Dec-16 02:00N 39°09' W 075°15'3 5.7
2017-Dec-16 01:30N 39°11' W 075°17'3 5.1
2017-Dec-16 01:00N 39°14' W 075°18'2 4.8
2017-Dec-16 00:30N 39°16' W 075°20'2 4.6
2017-Dec-16 00:00N 39°17' W 075°22'2 4.5
2017-Dec-15 23:30N 39°19' W 075°24'2 4.7
2017-Dec-15 23:00N 39°21' W 075°26'3 5.5
2017-Dec-15 22:30N 39°23' W 075°28'3 5.8
2017-Dec-15 22:00N 39°25' W 075°31'2 3.4
2017-Dec-15 21:30N 39°26' W 075°32'3 5.6
2017-Dec-15 21:00N 39°29' W 075°34'3 6.3
2017-Dec-15 20:30N 39°32' W 075°33'3 5.3
2017-Dec-15 20:00N 39°35' W 075°33'3 6.2
2017-Dec-15 19:30N 39°37' W 075°35'3 6.3
2017-Dec-15 19:00N 39°40' W 075°32'3 6.0
2017-Dec-15 18:31N 39°43' W 075°31'3 5.9
2017-Dec-15 18:00N 39°45' W 075°29'2 4.5
2017-Dec-15 17:30N 39°47' W 075°27'0 0.8
2017-Dec-15 17:00N 39°47' W 075°27'0 0.5
2017-Dec-15 16:31N 39°47' W 075°27'0 0.3
2017-Dec-15 16:00N 39°47' W 075°27'0 0.1
2017-Dec-15 15:30N 39°47' W 075°27'0 0.0
2017-Dec-15 15:01N 39°47' W 075°27'0 0.5
2017-Dec-15 14:30N 39°47' W 075°27'1 1.7
2017-Dec-15 14:00N 39°47' W 075°28'3 6.8
2017-Dec-15 13:30N 39°44' W 075°30'2 3.1
2017-Dec-15 13:00N 39°42' W 075°31'4 8.3
2017-Dec-15 12:30N 39°39' W 075°33'4 8.7
2017-Dec-15 12:00N 39°34' W 075°33'5 9.9
2017-Dec-15 11:30N 39°30' W 075°34'5 9.4
2017-Dec-15 11:00N 39°25' W 075°31'510.9
2017-Dec-15 10:30N 39°21' W 075°26'510.4
2017-Dec-15 10:00N 39°17' W 075°22'510.1
2017-Dec-15 09:30N 39°13' W 075°18'1110.1
2017-Dec-15 08:27N 39°04' W 075°11'25 1.8
2017-Dec-14 18:31N 39°24' W 075°30'4 7.6
2017-Dec-14 18:00N 39°27' W 075°33'3 6.3
2017-Dec-14 17:30N 39°30' W 075°33'3 6.3
2017-Dec-14 17:00N 39°33' W 075°33'3 5.5
2017-Dec-14 16:30N 39°36' W 075°34'2 4.9
2017-Dec-14 16:00N 39°38' W 075°34'5 4.6
2017-Dec-14 15:00N 39°42' W 075°31'2 4.2
2017-Dec-14 14:31N 39°44' W 075°30'2 3.7
2017-Dec-14 14:01N 39°46' W 075°29'2 3.6
2017-Dec-14 13:30N 39°47' W 075°27'1 1.5
2017-Dec-14 13:01N 39°47' W 075°26'0 0.1
2017-Dec-14 12:30N 39°47' W 075°26'1 1.3
2017-Dec-14 12:00N 39°48' W 075°26'3 5.3
2017-Dec-14 11:30N 39°50' W 075°23'3 5.7
2017-Dec-14 11:00N 39°48' W 075°26'0 0.9
2017-Dec-14 10:30N 39°47' W 075°26'0 0.2
2017-Dec-14 10:00N 39°47' W 075°26'0 0.0
2017-Dec-14 09:31N 39°47' W 075°26'0 0.0
2017-Dec-14 09:00N 39°47' W 075°26'0 0.0
2017-Dec-14 08:30N 39°47' W 075°26'0 0.0
2017-Dec-14 08:00N 39°47' W 075°26'0 0.0
2017-Dec-14 07:31N 39°47' W 075°26'0 0.0
2017-Dec-14 07:00N 39°47' W 075°26'0 0.0
2017-Dec-14 06:30N 39°47' W 075°26'0 0.0
2017-Dec-14 06:00N 39°47' W 075°26'0 0.0
2017-Dec-14 05:30N 39°47' W 075°26'0 0.0
2017-Dec-14 05:00N 39°47' W 075°26'0 0.0
2017-Dec-14 04:31N 39°47' W 075°26'0 0.2
2017-Dec-14 04:00N 39°47' W 075°26'0 0.1
2017-Dec-14 03:30N 39°47' W 075°26'0 0.0
2017-Dec-14 03:00N 39°47' W 075°26'0 0.0
2017-Dec-14 02:30N 39°47' W 075°26'0 0.0
2017-Dec-14 02:00N 39°47' W 075°26'0 0.0
2017-Dec-14 01:31N 39°47' W 075°26'0 0.0
2017-Dec-14 01:00N 39°47' W 075°26'0 0.0
2017-Dec-14 00:31N 39°47' W 075°26'0 0.0
2017-Dec-14 00:00N 39°47' W 075°26'0 0.0
2017-Dec-13 23:30N 39°47' W 075°26'0 0.0
2017-Dec-13 23:01N 39°47' W 075°26'0 0.0
2017-Dec-13 22:31N 39°47' W 075°26'0 0.2
2017-Dec-13 22:00N 39°47' W 075°26'0 0.0
2017-Dec-13 21:30N 39°47' W 075°26'0 0.0
2017-Dec-13 21:00N 39°47' W 075°26'0 0.0
2017-Dec-13 20:31N 39°47' W 075°26'0 0.0
2017-Dec-13 20:01N 39°47' W 075°26'0 0.0
2017-Dec-13 19:31N 39°47' W 075°26'0 0.0
2017-Dec-13 19:00N 39°47' W 075°26'0 0.0
2017-Dec-13 18:30N 39°47' W 075°26'0 0.0
2017-Dec-13 18:01N 39°47' W 075°26'0 0.0
2017-Dec-13 17:31N 39°47' W 075°26'0 0.0
2017-Dec-13 17:00N 39°47' W 075°26'0 0.1
2017-Dec-13 16:30N 39°47' W 075°26'0 0.1
2017-Dec-13 16:00N 39°47' W 075°26'0 0.0
2017-Dec-13 15:30N 39°47' W 075°26'0 0.0
2017-Dec-13 15:00N 39°47' W 075°26'0 0.0
2017-Dec-13 14:30N 39°47' W 075°26'0 0.0
2017-Dec-13 14:00N 39°47' W 075°26'1 1.5
2017-Dec-13 13:30N 39°47' W 075°27'1 1.6
2017-Dec-13 13:01N 39°48' W 075°26'0 0.2
2017-Dec-13 12:31N 39°47' W 075°26'0 0.0
2017-Dec-13 12:01N 39°47' W 075°26'0 0.0
2017-Dec-13 11:31N 39°47' W 075°26'0 0.0
2017-Dec-13 11:00N 39°47' W 075°26'0 0.0
2017-Dec-13 10:31N 39°47' W 075°26'0 0.0
2017-Dec-13 10:01N 39°47' W 075°26'0 0.1
2017-Dec-13 09:30N 39°47' W 075°26'0 0.1
2017-Dec-13 09:00N 39°47' W 075°26'0 0.0
2017-Dec-13 08:31N 39°47' W 075°26'0 0.0
2017-Dec-13 08:01N 39°47' W 075°26'0 0.0
2017-Dec-13 07:30N 39°47' W 075°26'0 0.0
2017-Dec-13 07:00N 39°47' W 075°26'0 0.0
2017-Dec-13 06:31N 39°47' W 075°26'0 0.0
2017-Dec-13 06:00N 39°47' W 075°26'0 0.0
2017-Dec-13 05:31N 39°47' W 075°26'0 0.0
2017-Dec-13 05:00N 39°47' W 075°26'0 0.0
2017-Dec-13 04:31N 39°47' W 075°26'0 0.0
2017-Dec-13 04:01N 39°47' W 075°26'0 0.1
2017-Dec-13 03:30N 39°47' W 075°26'0 0.0
2017-Dec-13 03:00N 39°47' W 075°26'0 0.0
2017-Dec-13 02:30N 39°47' W 075°26'0 0.0
2017-Dec-13 02:01N 39°47' W 075°26'0 0.0
2017-Dec-13 01:30N 39°47' W 075°26'0 0.0
2017-Dec-13 01:01N 39°47' W 075°26'0 0.0
2017-Dec-13 00:30N 39°47' W 075°26'0 0.0
2017-Dec-13 00:01N 39°47' W 075°26'0 0.0
2017-Dec-12 23:31N 39°47' W 075°26'0 0.0
2017-Dec-12 23:00N 39°47' W 075°26'0 0.0
2017-Dec-12 22:31N 39°47' W 075°26'0 0.0
2017-Dec-12 22:00N 39°47' W 075°26'0 0.0
2017-Dec-12 21:30N 39°47' W 075°26'0 0.1
2017-Dec-12 21:00N 39°47' W 075°26'0 0.1
2017-Dec-12 20:30N 39°47' W 075°26'0 0.0
2017-Dec-12 20:00N 39°47' W 075°26'0 0.0
2017-Dec-12 19:31N 39°47' W 075°26'0 0.0
2017-Dec-12 19:00N 39°47' W 075°26'0 0.1
2017-Dec-12 18:30N 39°47' W 075°26'0 0.0
2017-Dec-12 18:00N 39°47' W 075°26'0 0.1
2017-Dec-12 17:30N 39°47' W 075°26'0 0.0
2017-Dec-12 17:00N 39°47' W 075°26'0 0.0
2017-Dec-12 15:59N 39°47' W 075°26'0 0.6
2017-Dec-12 15:28N 39°47' W 075°27'0 0.3
2017-Dec-12 15:00N 39°47' W 075°27'0 0.1
2017-Dec-12 14:28N 39°47' W 075°27'0 0.2
2017-Dec-12 14:00N 39°47' W 075°27'0 0.7
2017-Dec-12 13:30N 39°47' W 075°26'0 0.1
2017-Dec-12 13:00N 39°47' W 075°26'0 0.4
2017-Dec-12 12:30N 39°48' W 075°27'3 5.9
2017-Dec-12 11:59N 39°45' W 075°29'4 9.3
2017-Dec-12 11:30N 39°41' W 075°31'5 9.0
2017-Dec-12 11:00N 39°37' W 075°35'4 8.7
2017-Dec-12 10:30N 39°33' W 075°32'610.8
2017-Dec-12 09:58N 39°28' W 075°33'3 6.1
2017-Dec-12 09:29N 39°25' W 075°31'4 9.2
2017-Dec-12 09:00N 39°22' W 075°27'611.7
2017-Dec-12 08:27N 39°17' W 075°22'4 7.7
2017-Dec-12 07:58N 39°14' W 075°19'4 8.2
2017-Dec-12 07:27N 39°10' W 075°16'4 8.2
2017-Dec-12 06:55N 39°07' W 075°13'3 7.6
2017-Dec-12 06:28N 39°04' W 075°10'510.1
2017-Dec-12 05:59N 38°59' W 075°08'4 7.7
2017-Dec-12 05:30N 38°56' W 075°06'6 0.6
2017-Dec-11 20:07N 39°02' W 075°09'1 5.7
2017-Dec-11 20:01N 39°02' W 075°10'3 5.4
2017-Dec-11 19:30N 39°05' W 075°11'2 4.9
2017-Dec-11 19:00N 39°07' W 075°12'2 4.8
2017-Dec-11 18:31N 39°09' W 075°14'3 5.1
2017-Dec-11 18:00N 39°11' W 075°16'3 5.7
2017-Dec-11 17:31N 39°13' W 075°18'3 6.5
2017-Dec-11 17:00N 39°16' W 075°20'4 7.3
2017-Dec-11 16:30N 39°19' W 075°24'4 8.2
2017-Dec-11 16:01N 39°22' W 075°27'4 8.2
2017-Dec-11 15:30N 39°25' W 075°31'4 7.4
2017-Dec-11 15:01N 39°28' W 075°34'3 6.5
2017-Dec-11 14:31N 39°31' W 075°33'3 6.2
2017-Dec-11 14:00N 39°34' W 075°33'3 5.8
2017-Dec-11 13:31N 39°37' W 075°35'2 4.8
2017-Dec-11 13:01N 39°39' W 075°33'2 4.7
2017-Dec-11 12:31N 39°41' W 075°31'2 4.2
2017-Dec-11 12:00N 39°43' W 075°31'2 4.2
2017-Dec-11 11:31N 39°45' W 075°30'2 3.4
2017-Dec-11 11:01N 39°46' W 075°28'2 3.2
2017-Dec-11 10:30N 39°47' W 075°27'0 0.0
2017-Dec-11 10:01N 39°47' W 075°27'0 0.0
2017-Dec-11 09:31N 39°47' W 075°27'3 6.4
2017-Dec-11 09:01N 39°49' W 075°24'1 3.0
2017-Dec-11 08:31N 39°50' W 075°22'4 8.0
2017-Dec-11 08:01N 39°48' W 075°26'1 1.6
2017-Dec-11 07:31N 39°47' W 075°27'0 0.0
2017-Dec-11 07:01N 39°47' W 075°27'0 0.0
2017-Dec-11 06:30N 39°47' W 075°27'0 0.0
2017-Dec-11 06:01N 39°47' W 075°27'0 0.0
2017-Dec-11 05:31N 39°47' W 075°27'0 0.0
2017-Dec-11 05:00N 39°47' W 075°27'0 0.0
2017-Dec-11 04:30N 39°47' W 075°27'0 0.0
2017-Dec-11 04:00N 39°47' W 075°27'0 0.0
2017-Dec-11 03:30N 39°47' W 075°27'0 0.1
2017-Dec-11 03:01N 39°47' W 075°27'0 0.0
2017-Dec-11 02:30N 39°47' W 075°27'0 0.1
2017-Dec-11 02:00N 39°47' W 075°27'0 0.0
2017-Dec-11 01:31N 39°47' W 075°27'0 0.1
2017-Dec-11 01:00N 39°47' W 075°27'0 0.0
2017-Dec-11 00:30N 39°47' W 075°27'0 0.0
2017-Dec-11 00:01N 39°47' W 075°27'0 0.0
2017-Dec-10 23:30N 39°47' W 075°27'0 0.0
2017-Dec-10 23:01N 39°47' W 075°27'0 0.0
2017-Dec-10 22:30N 39°47' W 075°27'0 0.0
2017-Dec-10 22:01N 39°47' W 075°27'0 0.0
2017-Dec-10 21:31N 39°47' W 075°27'0 0.0
2017-Dec-10 21:00N 39°47' W 075°27'3 5.6
2017-Dec-10 20:30N 39°49' W 075°24'2 3.9
2017-Dec-10 20:01N 39°50' W 075°22'0 0.0
2017-Dec-10 19:31N 39°50' W 075°22'0 0.0
2017-Dec-10 19:01N 39°50' W 075°22'0 0.1
2017-Dec-10 18:31N 39°50' W 075°22'0 0.0
2017-Dec-10 18:00N 39°50' W 075°22'0 0.0
2017-Dec-10 17:31N 39°50' W 075°22'0 0.0
2017-Dec-10 17:01N 39°50' W 075°22'0 0.0
2017-Dec-10 16:30N 39°50' W 075°22'1 1.3
2017-Dec-10 16:00N 39°50' W 075°23'0 0.5
2017-Dec-10 15:30N 39°50' W 075°23'0 0.1
2017-Dec-10 15:01N 39°50' W 075°23'1 1.6
2017-Dec-10 14:31N 39°50' W 075°22'0 0.0
2017-Dec-10 14:00N 39°50' W 075°22'0 0.0
2017-Dec-10 13:31N 39°50' W 075°22'0 0.0
2017-Dec-10 13:01N 39°50' W 075°22'0 0.2
2017-Dec-10 12:31N 39°50' W 075°22'0 0.0
2017-Dec-10 12:00N 39°50' W 075°22'0 0.0
2017-Dec-10 11:31N 39°50' W 075°22'0 0.0
2017-Dec-10 11:01N 39°50' W 075°22'0 0.0
2017-Dec-10 10:30N 39°50' W 075°22'0 0.0
2017-Dec-10 10:01N 39°50' W 075°22'0 0.0
2017-Dec-10 09:30N 39°50' W 075°22'0 0.0
2017-Dec-10 09:00N 39°50' W 075°22'0 0.0
2017-Dec-10 08:31N 39°50' W 075°22'0 0.0
2017-Dec-10 08:00N 39°50' W 075°22'0 0.0
2017-Dec-10 07:30N 39°50' W 075°22'0 0.0
2017-Dec-10 07:01N 39°50' W 075°22'0 0.1
2017-Dec-10 06:30N 39°50' W 075°22'0 0.1
2017-Dec-10 06:01N 39°50' W 075°22'0 0.0
2017-Dec-10 05:30N 39°50' W 075°22'0 0.0
2017-Dec-10 05:00N 39°50' W 075°22'0 0.0
2017-Dec-10 04:31N 39°50' W 075°22'0 0.0
2017-Dec-10 04:01N 39°50' W 075°22'0 0.0
2017-Dec-10 03:30N 39°50' W 075°22'0 0.0
2017-Dec-10 03:01N 39°50' W 075°22'0 0.0
2017-Dec-10 02:31N 39°50' W 075°22'0 0.0
2017-Dec-10 02:00N 39°50' W 075°22'0 0.0
2017-Dec-10 01:30N 39°50' W 075°22'3 5.9
2017-Dec-10 01:00N 39°48' W 075°25'1 1.3
2017-Dec-10 00:30N 39°48' W 075°26'4 8.8
2017-Dec-10 00:00N 39°45' W 075°30'5 9.0
2017-Dec-09 23:30N 39°40' W 075°32'4 8.6
2017-Dec-09 23:01N 39°37' W 075°35'4 8.9
2017-Dec-09 22:30N 39°32' W 075°33'5 9.1
2017-Dec-09 22:00N 39°28' W 075°34'4 8.7
2017-Dec-09 21:30N 39°25' W 075°30'510.3
2017-Dec-09 21:00N 39°21' W 075°26'510.3
2017-Dec-09 20:30N 39°17' W 075°21'510.1
2017-Dec-09 20:00N 39°13' W 075°17'610.1
2017-Dec-09 19:27N 39°08' W 075°14'4 9.6
2017-Dec-09 19:00N 39°05' W 075°11'5 9.8
2017-Dec-09 18:29N 38°60' W 075°08'8 1.2
2017-Dec-09 11:51N 38°53' W 075°04'3 8.5
2017-Dec-09 11:29N 38°56' W 075°06'4 8.6
2017-Dec-09 11:00N 38°60' W 075°08'4 8.7
2017-Dec-09 10:31N 39°03' W 075°10'4 8.5
2017-Dec-09 10:00N 39°07' W 075°13'4 7.6
2017-Dec-09 09:30N 39°10' W 075°16'4 7.2
2017-Dec-09 09:00N 39°14' W 075°18'3 6.5
2017-Dec-09 08:30N 39°16' W 075°21'3 5.9
2017-Dec-09 08:01N 39°18' W 075°23'3 5.2
2017-Dec-09 07:30N 39°20' W 075°25'2 4.6
2017-Dec-09 07:00N 39°22' W 075°27'2 4.8
2017-Dec-09 06:30N 39°24' W 075°30'2 4.9
2017-Dec-09 06:00N 39°26' W 075°32'2 4.7
2017-Dec-09 05:30N 39°27' W 075°34'2 4.5
2017-Dec-09 05:00N 39°30' W 075°34'3 5.5
2017-Dec-09 04:30N 39°32' W 075°33'3 6.0
2017-Dec-09 04:00N 39°35' W 075°34'3 6.4
2017-Dec-09 03:30N 39°38' W 075°34'4 7.4
2017-Dec-09 03:00N 39°41' W 075°31'4 7.9
2017-Dec-09 02:30N 39°45' W 075°29'4 7.4
2017-Dec-09 02:00N 39°48' W 075°26'4 7.5
2017-Dec-09 01:30N 39°50' W 075°22'0 0.9
2017-Dec-09 01:00N 39°50' W 075°22'0 0.0
2017-Dec-09 00:30N 39°50' W 075°22'0 0.0
2017-Dec-09 00:00N 39°50' W 075°22'0 0.0
2017-Dec-08 23:30N 39°50' W 075°22'0 0.0
2017-Dec-08 23:00N 39°50' W 075°22'0 0.5
2017-Dec-08 22:30N 39°50' W 075°21'0 0.0
2017-Dec-08 22:00N 39°50' W 075°21'0 0.1
2017-Dec-08 21:30N 39°50' W 075°21'0 0.3
2017-Dec-08 21:00N 39°50' W 075°21'1 1.1
2017-Dec-08 20:30N 39°50' W 075°22'1 1.0
2017-Dec-08 20:00N 39°50' W 075°21'4 8.2
2017-Dec-08 19:30N 39°51' W 075°16'4 7.9
2017-Dec-08 19:00N 39°53' W 075°12'0 0.7
2017-Dec-08 18:31N 39°54' W 075°12'0 0.0
2017-Dec-08 18:00N 39°54' W 075°12'0 0.0
2017-Dec-08 17:30N 39°54' W 075°12'0 0.1
2017-Dec-08 17:00N 39°53' W 075°12'0 0.0
2017-Dec-08 16:30N 39°53' W 075°12'0 0.0
2017-Dec-08 16:00N 39°53' W 075°12'0 0.0
2017-Dec-08 15:30N 39°53' W 075°12'0 0.0
2017-Dec-08 15:00N 39°53' W 075°12'0 0.0
2017-Dec-08 14:30N 39°53' W 075°12'0 0.0
2017-Dec-08 14:00N 39°53' W 075°12'0 0.0
2017-Dec-08 13:30N 39°53' W 075°12'0 0.1
2017-Dec-08 13:00N 39°54' W 075°12'0 0.0
2017-Dec-08 12:30N 39°54' W 075°12'0 0.0
2017-Dec-08 12:00N 39°54' W 075°12'0 0.0
2017-Dec-08 11:30N 39°54' W 075°12'0 0.0
2017-Dec-08 11:00N 39°54' W 075°12'0 0.0
2017-Dec-08 10:30N 39°54' W 075°12'0 0.0
2017-Dec-08 10:00N 39°54' W 075°12'0 0.0
2017-Dec-08 09:31N 39°54' W 075°12'0 0.0
2017-Dec-08 09:00N 39°54' W 075°12'4 7.3
2017-Dec-08 08:31N 39°51' W 075°15'510.7
2017-Dec-08 08:00N 39°50' W 075°22'611.4
2017-Dec-08 07:30N 39°47' W 075°28'612.5
2017-Dec-08 07:00N 39°41' W 075°31'611.3
2017-Dec-08 06:30N 39°36' W 075°34'4 8.3
2017-Dec-08 06:01N 39°33' W 075°38'611.6
2017-Dec-08 05:30N 39°32' W 075°46'3 6.1
2017-Dec-08 05:00N 39°32' W 075°50'611.3
2017-Dec-08 04:30N 39°29' W 075°56'611.7
2017-Dec-08 04:00N 39°25' W 076°02'611.6
2017-Dec-08 03:30N 39°22' W 076°08'611.7
2017-Dec-08 03:00N 39°18' W 076°13'611.7
2017-Dec-08 02:30N 39°12' W 076°16'510.1
2017-Dec-08 02:00N 39°09' W 076°21'510.5
2017-Dec-08 01:30N 39°11' W 076°27'510.3
2017-Dec-08 01:00N 39°14' W 076°33'4 7.2
2017-Dec-08 00:30N 39°16' W 076°36'0 0.1
2017-Dec-08 00:00N 39°17' W 076°36'2 4.6
2017-Dec-07 23:30N 39°15' W 076°34'2 3.1
2017-Dec-07 23:00N 39°14' W 076°33'2 4.6
2017-Dec-07 22:30N 39°12' W 076°31'5 9.0
2017-Dec-07 22:00N 39°10' W 076°25'4 8.8
2017-Dec-07 21:30N 39°09' W 076°20'6 9.5
2017-Dec-07 20:53N 39°13' W 076°15'710.0
2017-Dec-07 20:13N 39°20' W 076°12'210.2
2017-Dec-07 20:00N 39°21' W 076°10'5 9.9
2017-Dec-07 19:30N 39°23' W 076°04'5 9.4
2017-Dec-07 19:00N 39°27' W 075°60'5 9.2
2017-Dec-07 18:30N 39°30' W 075°56'4 8.1
2017-Dec-07 18:00N 39°32' W 075°51'3 6.0
2017-Dec-07 17:30N 39°32' W 075°47'3 6.4
2017-Dec-07 17:01N 39°33' W 075°43'3 5.6
2017-Dec-07 16:30N 39°33' W 075°40'3 6.4
2017-Dec-07 16:01N 39°33' W 075°36'2 4.8
2017-Dec-07 15:30N 39°33' W 075°33'4 8.1
2017-Dec-07 15:00N 39°29' W 075°34'4 8.8
2017-Dec-07 14:30N 39°25' W 075°31'4 8.5
2017-Dec-07 14:01N 39°22' W 075°27'4 8.0
2017-Dec-07 13:30N 39°19' W 075°24'5 9.8
2017-Dec-07 12:59N 39°15' W 075°19'3 5.8
2017-Dec-07 12:30N 39°13' W 075°17'4 8.6
2017-Dec-07 12:00N 39°09' W 075°15'4 7.6
2017-Dec-07 11:29N 39°06' W 075°12'4 8.0
2017-Dec-07 10:59N 39°02' W 075°09'51 5.7
2017-Dec-07 01:58N 39°27' W 074°11'5 8.5
2017-Dec-07 01:26N 39°31' W 074°08'4 8.5
2017-Dec-07 01:00N 39°34' W 074°06'4 8.7
2017-Dec-07 00:30N 39°38' W 074°03'4 8.6
2017-Dec-07 00:00N 39°42' W 074°01'4 8.7
2017-Dec-06 23:30N 39°46' W 073°58'  
Track history (hours):
 
Tides and Currents Weather Stations Pressure Air Temp Water Temp Dewpoint Dewpoint Depression Visibility Wind Speed Wind Dir Waves Ship Positions

Atlantic Coast

Owner: DANN MARINE TOWING, CHESAPEAKE CITY, MD. More information available from US FCC via Universal Licensing System and Coast Guard Vessel Documentation Center.

Last reported at 2017-Dec-16 04:59 UTC. Time now 2017-Dec-16 05:14 UTC.
Position N 38°50' W 075°03'.

Length 30 m; draft 4.2 m.

Type: Tug. MMSI: 367307850.

Date/timePositionNaut miles runAvg speedWind from/ knotsBaromVisibWave heightAir tempDewpointWater temp
2017-Dec-16 04:59N 38°50' W 075°03'3 6.3
2017-Dec-16 04:30N 38°53' W 075°04'3 6.9
2017-Dec-16 04:00N 38°56' W 075°06'4 7.9
2017-Dec-16 03:30N 38°60' W 075°08'4 7.5
2017-Dec-16 03:00N 39°03' W 075°10'4 7.1
2017-Dec-16 02:30N 39°06' W 075°12'3 6.9
2017-Dec-16 02:00N 39°09' W 075°15'3 5.7
2017-Dec-16 01:30N 39°11' W 075°17'3 5.1
2017-Dec-16 01:00N 39°14' W 075°18'2 4.8
2017-Dec-16 00:30N 39°16' W 075°20'2 4.6
2017-Dec-16 00:00N 39°17' W 075°22'2 4.5
2017-Dec-15 23:30N 39°19' W 075°24'2 4.7
2017-Dec-15 23:00N 39°21' W 075°26'3 5.5
2017-Dec-15 22:30N 39°23' W 075°28'3 5.8
2017-Dec-15 22:00N 39°25' W 075°31'2 3.4
2017-Dec-15 21:30N 39°26' W 075°32'3 5.6
2017-Dec-15 21:00N 39°29' W 075°34'3 6.3
2017-Dec-15 20:30N 39°32' W 075°33'3 5.3
2017-Dec-15 20:00N 39°35' W 075°33'3 6.2
2017-Dec-15 19:30N 39°37' W 075°35'3 6.3
2017-Dec-15 19:00N 39°40' W 075°32'3 6.0
2017-Dec-15 18:31N 39°43' W 075°31'3 5.9
2017-Dec-15 18:00N 39°45' W 075°29'2 4.5
2017-Dec-15 17:30N 39°47' W 075°27'0 0.8
2017-Dec-15 17:00N 39°47' W 075°27'0 0.5
2017-Dec-15 16:31N 39°47' W 075°27'0 0.3
2017-Dec-15 16:00N 39°47' W 075°27'0 0.1
2017-Dec-15 15:30N 39°47' W 075°27'0 0.0
2017-Dec-15 15:01N 39°47' W 075°27'0 0.5
2017-Dec-15 14:30N 39°47' W 075°27'1 1.7
2017-Dec-15 14:00N 39°47' W 075°28'3 6.8
2017-Dec-15 13:30N 39°44' W 075°30'2 3.1
2017-Dec-15 13:00N 39°42' W 075°31'4 8.3
2017-Dec-15 12:30N 39°39' W 075°33'4 8.7
2017-Dec-15 12:00N 39°34' W 075°33'5 9.9
2017-Dec-15 11:30N 39°30' W 075°34'5 9.4
2017-Dec-15 11:00N 39°25' W 075°31'510.9
2017-Dec-15 10:30N 39°21' W 075°26'510.4
2017-Dec-15 10:00N 39°17' W 075°22'510.1
2017-Dec-15 09:30N 39°13' W 075°18'1110.1
2017-Dec-15 08:27N 39°04' W 075°11'25 1.8
2017-Dec-14 18:31N 39°24' W 075°30'4 7.6
2017-Dec-14 18:00N 39°27' W 075°33'3 6.3
2017-Dec-14 17:30N 39°30' W 075°33'3 6.3
2017-Dec-14 17:00N 39°33' W 075°33'3 5.5
2017-Dec-14 16:30N 39°36' W 075°34'2 4.9
2017-Dec-14 16:00N 39°38' W 075°34'5 4.6
2017-Dec-14 15:00N 39°42' W 075°31'2 4.2
2017-Dec-14 14:31N 39°44' W 075°30'2 3.7
2017-Dec-14 14:01N 39°46' W 075°29'2 3.6
2017-Dec-14 13:30N 39°47' W 075°27'1 1.5
2017-Dec-14 13:01N 39°47' W 075°26'0 0.1
2017-Dec-14 12:30N 39°47' W 075°26'1 1.3
2017-Dec-14 12:00N 39°48' W 075°26'3 5.3
2017-Dec-14 11:30N 39°50' W 075°23'3 5.7
2017-Dec-14 11:00N 39°48' W 075°26'0 0.9
2017-Dec-14 10:30N 39°47' W 075°26'0 0.2
2017-Dec-14 10:00N 39°47' W 075°26'0 0.0
2017-Dec-14 09:31N 39°47' W 075°26'0 0.0
2017-Dec-14 09:00N 39°47' W 075°26'0 0.0
2017-Dec-14 08:30N 39°47' W 075°26'0 0.0
2017-Dec-14 08:00N 39°47' W 075°26'0 0.0
2017-Dec-14 07:31N 39°47' W 075°26'0 0.0
2017-Dec-14 07:00N 39°47' W 075°26'0 0.0
2017-Dec-14 06:30N 39°47' W 075°26'0 0.0
2017-Dec-14 06:00N 39°47' W 075°26'0 0.0
2017-Dec-14 05:30N 39°47' W 075°26'0 0.0
2017-Dec-14 05:00N 39°47' W 075°26'0 0.0
2017-Dec-14 04:31N 39°47' W 075°26'0 0.2
2017-Dec-14 04:00N 39°47' W 075°26'0 0.1
2017-Dec-14 03:30N 39°47' W 075°26'0 0.0
2017-Dec-14 03:00N 39°47' W 075°26'0 0.0
2017-Dec-14 02:30N 39°47' W 075°26'0 0.0
2017-Dec-14 02:00N 39°47' W 075°26'0 0.0
2017-Dec-14 01:31N 39°47' W 075°26'0 0.0
2017-Dec-14 01:00N 39°47' W 075°26'0 0.0
2017-Dec-14 00:31N 39°47' W 075°26'0 0.0
2017-Dec-14 00:00N 39°47' W 075°26'0 0.0
2017-Dec-13 23:30N 39°47' W 075°26'0 0.0
2017-Dec-13 23:01N 39°47' W 075°26'0 0.0
2017-Dec-13 22:31N 39°47' W 075°26'0 0.2
2017-Dec-13 22:00N 39°47' W 075°26'0 0.0
2017-Dec-13 21:30N 39°47' W 075°26'0 0.0
2017-Dec-13 21:00N 39°47' W 075°26'0 0.0
2017-Dec-13 20:31N 39°47' W 075°26'0 0.0
2017-Dec-13 20:01N 39°47' W 075°26'0 0.0
2017-Dec-13 19:31N 39°47' W 075°26'0 0.0
2017-Dec-13 19:00N 39°47' W 075°26'0 0.0
2017-Dec-13 18:30N 39°47' W 075°26'0 0.0
2017-Dec-13 18:01N 39°47' W 075°26'0 0.0
2017-Dec-13 17:31N 39°47' W 075°26'0 0.0
2017-Dec-13 17:00N 39°47' W 075°26'0 0.1
2017-Dec-13 16:30N 39°47' W 075°26'0 0.1
2017-Dec-13 16:00N 39°47' W 075°26'0 0.0
2017-Dec-13 15:30N 39°47' W 075°26'0 0.0
2017-Dec-13 15:00N 39°47' W 075°26'0 0.0
2017-Dec-13 14:30N 39°47' W 075°26'0 0.0
2017-Dec-13 14:00N 39°47' W 075°26'1 1.5
2017-Dec-13 13:30N 39°47' W 075°27'1 1.6
2017-Dec-13 13:01N 39°48' W 075°26'0 0.2
2017-Dec-13 12:31N 39°47' W 075°26'0 0.0
2017-Dec-13 12:01N 39°47' W 075°26'0 0.0
2017-Dec-13 11:31N 39°47' W 075°26'0 0.0
2017-Dec-13 11:00N 39°47' W 075°26'0 0.0
2017-Dec-13 10:31N 39°47' W 075°26'0 0.0
2017-Dec-13 10:01N 39°47' W 075°26'0 0.1
2017-Dec-13 09:30N 39°47' W 075°26'0 0.1
2017-Dec-13 09:00N 39°47' W 075°26'0 0.0
2017-Dec-13 08:31N 39°47' W 075°26'0 0.0
2017-Dec-13 08:01N 39°47' W 075°26'0 0.0
2017-Dec-13 07:30N 39°47' W 075°26'0 0.0
2017-Dec-13 07:00N 39°47' W 075°26'0 0.0
2017-Dec-13 06:31N 39°47' W 075°26'0 0.0
2017-Dec-13 06:00N 39°47' W 075°26'0 0.0
2017-Dec-13 05:31N 39°47' W 075°26'0 0.0
2017-Dec-13 05:00N 39°47' W 075°26'0 0.0
2017-Dec-13 04:31N 39°47' W 075°26'0 0.0
2017-Dec-13 04:01N 39°47' W 075°26'0 0.1
2017-Dec-13 03:30N 39°47' W 075°26'0 0.0
2017-Dec-13 03:00N 39°47' W 075°26'0 0.0
2017-Dec-13 02:30N 39°47' W 075°26'0 0.0
2017-Dec-13 02:01N 39°47' W 075°26'0 0.0
2017-Dec-13 01:30N 39°47' W 075°26'0 0.0
2017-Dec-13 01:01N 39°47' W 075°26'0 0.0
2017-Dec-13 00:30N 39°47' W 075°26'0 0.0
2017-Dec-13 00:01N 39°47' W 075°26'0 0.0
2017-Dec-12 23:31N 39°47' W 075°26'0 0.0
2017-Dec-12 23:00N 39°47' W 075°26'0 0.0
2017-Dec-12 22:31N 39°47' W 075°26'0 0.0
2017-Dec-12 22:00N 39°47' W 075°26'0 0.0
2017-Dec-12 21:30N 39°47' W 075°26'0 0.1
2017-Dec-12 21:00N 39°47' W 075°26'0 0.1
2017-Dec-12 20:30N 39°47' W 075°26'0 0.0
2017-Dec-12 20:00N 39°47' W 075°26'0 0.0
2017-Dec-12 19:31N 39°47' W 075°26'0 0.0
2017-Dec-12 19:00N 39°47' W 075°26'0 0.1
2017-Dec-12 18:30N 39°47' W 075°26'0 0.0
2017-Dec-12 18:00N 39°47' W 075°26'0 0.1
2017-Dec-12 17:30N 39°47' W 075°26'0 0.0
2017-Dec-12 17:00N 39°47' W 075°26'0 0.0
2017-Dec-12 15:59N 39°47' W 075°26'0 0.6
2017-Dec-12 15:28N 39°47' W 075°27'0 0.3
2017-Dec-12 15:00N 39°47' W 075°27'0 0.1
2017-Dec-12 14:28N 39°47' W 075°27'0 0.2
2017-Dec-12 14:00N 39°47' W 075°27'0 0.7
2017-Dec-12 13:30N 39°47' W 075°26'0 0.1
2017-Dec-12 13:00N 39°47' W 075°26'0 0.4
2017-Dec-12 12:30N 39°48' W 075°27'3 5.9
2017-Dec-12 11:59N 39°45' W 075°29'4 9.3
2017-Dec-12 11:30N 39°41' W 075°31'5 9.0
2017-Dec-12 11:00N 39°37' W 075°35'4 8.7
2017-Dec-12 10:30N 39°33' W 075°32'610.8
2017-Dec-12 09:58N 39°28' W 075°33'3 6.1
2017-Dec-12 09:29N 39°25' W 075°31'4 9.2
2017-Dec-12 09:00N 39°22' W 075°27'611.7
2017-Dec-12 08:27N 39°17' W 075°22'4 7.7
2017-Dec-12 07:58N 39°14' W 075°19'4 8.2
2017-Dec-12 07:27N 39°10' W 075°16'4 8.2
2017-Dec-12 06:55N 39°07' W 075°13'3 7.6
2017-Dec-12 06:28N 39°04' W 075°10'510.1
2017-Dec-12 05:59N 38°59' W 075°08'4 7.7
2017-Dec-12 05:30N 38°56' W 075°06'6 0.6
2017-Dec-11 20:07N 39°02' W 075°09'1 5.7
2017-Dec-11 20:01N 39°02' W 075°10'3 5.4
2017-Dec-11 19:30N 39°05' W 075°11'2 4.9
2017-Dec-11 19:00N 39°07' W 075°12'2 4.8
2017-Dec-11 18:31N 39°09' W 075°14'3 5.1
2017-Dec-11 18:00N 39°11' W 075°16'3 5.7
2017-Dec-11 17:31N 39°13' W 075°18'3 6.5
2017-Dec-11 17:00N 39°16' W 075°20'4 7.3
2017-Dec-11 16:30N 39°19' W 075°24'4 8.2
2017-Dec-11 16:01N 39°22' W 075°27'4 8.2
2017-Dec-11 15:30N 39°25' W 075°31'4 7.4
2017-Dec-11 15:01N 39°28' W 075°34'3 6.5
2017-Dec-11 14:31N 39°31' W 075°33'3 6.2
2017-Dec-11 14:00N 39°34' W 075°33'3 5.8
2017-Dec-11 13:31N 39°37' W 075°35'2 4.8
2017-Dec-11 13:01N 39°39' W 075°33'2 4.7
2017-Dec-11 12:31N 39°41' W 075°31'2 4.2
2017-Dec-11 12:00N 39°43' W 075°31'2 4.2
2017-Dec-11 11:31N 39°45' W 075°30'2 3.4
2017-Dec-11 11:01N 39°46' W 075°28'2 3.2
2017-Dec-11 10:30N 39°47' W 075°27'0 0.0
2017-Dec-11 10:01N 39°47' W 075°27'0 0.0
2017-Dec-11 09:31N 39°47' W 075°27'3 6.4
2017-Dec-11 09:01N 39°49' W 075°24'1 3.0
2017-Dec-11 08:31N 39°50' W 075°22'4 8.0
2017-Dec-11 08:01N 39°48' W 075°26'1 1.6
2017-Dec-11 07:31N 39°47' W 075°27'0 0.0
2017-Dec-11 07:01N 39°47' W 075°27'0 0.0
2017-Dec-11 06:30N 39°47' W 075°27'0 0.0
2017-Dec-11 06:01N 39°47' W 075°27'0 0.0
2017-Dec-11 05:31N 39°47' W 075°27'0 0.0
2017-Dec-11 05:00N 39°47' W 075°27'0 0.0
2017-Dec-11 04:30N 39°47' W 075°27'0 0.0
2017-Dec-11 04:00N 39°47' W 075°27'0 0.0
2017-Dec-11 03:30N 39°47' W 075°27'0 0.1
2017-Dec-11 03:01N 39°47' W 075°27'0 0.0
2017-Dec-11 02:30N 39°47' W 075°27'0 0.1
2017-Dec-11 02:00N 39°47' W 075°27'0 0.0
2017-Dec-11 01:31N 39°47' W 075°27'0 0.1
2017-Dec-11 01:00N 39°47' W 075°27'0 0.0
2017-Dec-11 00:30N 39°47' W 075°27'0 0.0
2017-Dec-11 00:01N 39°47' W 075°27'0 0.0
2017-Dec-10 23:30N 39°47' W 075°27'0 0.0
2017-Dec-10 23:01N 39°47' W 075°27'0 0.0
2017-Dec-10 22:30N 39°47' W 075°27'0 0.0
2017-Dec-10 22:01N 39°47' W 075°27'0 0.0
2017-Dec-10 21:31N 39°47' W 075°27'0 0.0
2017-Dec-10 21:00N 39°47' W 075°27'3 5.6
2017-Dec-10 20:30N 39°49' W 075°24'2 3.9
2017-Dec-10 20:01N 39°50' W 075°22'0 0.0
2017-Dec-10 19:31N 39°50' W 075°22'0 0.0
2017-Dec-10 19:01N 39°50' W 075°22'0 0.1
2017-Dec-10 18:31N 39°50' W 075°22'0 0.0
2017-Dec-10 18:00N 39°50' W 075°22'0 0.0
2017-Dec-10 17:31N 39°50' W 075°22'0 0.0
2017-Dec-10 17:01N 39°50' W 075°22'0 0.0
2017-Dec-10 16:30N 39°50' W 075°22'1 1.3
2017-Dec-10 16:00N 39°50' W 075°23'0 0.5
2017-Dec-10 15:30N 39°50' W 075°23'0 0.1
2017-Dec-10 15:01N 39°50' W 075°23'1 1.6
2017-Dec-10 14:31N 39°50' W 075°22'0 0.0
2017-Dec-10 14:00N 39°50' W 075°22'0 0.0
2017-Dec-10 13:31N 39°50' W 075°22'0 0.0
2017-Dec-10 13:01N 39°50' W 075°22'0 0.2
2017-Dec-10 12:31N 39°50' W 075°22'0 0.0
2017-Dec-10 12:00N 39°50' W 075°22'0 0.0
2017-Dec-10 11:31N 39°50' W 075°22'0 0.0
2017-Dec-10 11:01N 39°50' W 075°22'0 0.0
2017-Dec-10 10:30N 39°50' W 075°22'0 0.0
2017-Dec-10 10:01N 39°50' W 075°22'0 0.0
2017-Dec-10 09:30N 39°50' W 075°22'0 0.0
2017-Dec-10 09:00N 39°50' W 075°22'0 0.0
2017-Dec-10 08:31N 39°50' W 075°22'0 0.0
2017-Dec-10 08:00N 39°50' W 075°22'0 0.0
2017-Dec-10 07:30N 39°50' W 075°22'0 0.0
2017-Dec-10 07:01N 39°50' W 075°22'0 0.1
2017-Dec-10 06:30N 39°50' W 075°22'0 0.1
2017-Dec-10 06:01N 39°50' W 075°22'0 0.0
2017-Dec-10 05:30N 39°50' W 075°22'0 0.0
2017-Dec-10 05:00N 39°50' W 075°22'0 0.0
2017-Dec-10 04:31N 39°50' W 075°22'0 0.0
2017-Dec-10 04:01N 39°50' W 075°22'0 0.0
2017-Dec-10 03:30N 39°50' W 075°22'0 0.0
2017-Dec-10 03:01N 39°50' W 075°22'0 0.0
2017-Dec-10 02:31N 39°50' W 075°22'0 0.0
2017-Dec-10 02:00N 39°50' W 075°22'0 0.0
2017-Dec-10 01:30N 39°50' W 075°22'3 5.9
2017-Dec-10 01:00N 39°48' W 075°25'1 1.3
2017-Dec-10 00:30N 39°48' W 075°26'4 8.8
2017-Dec-10 00:00N 39°45' W 075°30'5 9.0
2017-Dec-09 23:30N 39°40' W 075°32'4 8.6
2017-Dec-09 23:01N 39°37' W 075°35'4 8.9
2017-Dec-09 22:30N 39°32' W 075°33'5 9.1
2017-Dec-09 22:00N 39°28' W 075°34'4 8.7
2017-Dec-09 21:30N 39°25' W 075°30'510.3
2017-Dec-09 21:00N 39°21' W 075°26'510.3
2017-Dec-09 20:30N 39°17' W 075°21'510.1
2017-Dec-09 20:00N 39°13' W 075°17'610.1
2017-Dec-09 19:27N 39°08' W 075°14'4 9.6
2017-Dec-09 19:00N 39°05' W 075°11'5 9.8
2017-Dec-09 18:29N 38°60' W 075°08'8 1.2
2017-Dec-09 11:51N 38°53' W 075°04'3 8.5
2017-Dec-09 11:29N 38°56' W 075°06'4 8.6
2017-Dec-09 11:00N 38°60' W 075°08'4 8.7
2017-Dec-09 10:31N 39°03' W 075°10'4 8.5
2017-Dec-09 10:00N 39°07' W 075°13'4 7.6
2017-Dec-09 09:30N 39°10' W 075°16'4 7.2
2017-Dec-09 09:00N 39°14' W 075°18'3 6.5
2017-Dec-09 08:30N 39°16' W 075°21'3 5.9
2017-Dec-09 08:01N 39°18' W 075°23'3 5.2
2017-Dec-09 07:30N 39°20' W 075°25'2 4.6
2017-Dec-09 07:00N 39°22' W 075°27'2 4.8
2017-Dec-09 06:30N 39°24' W 075°30'2 4.9
2017-Dec-09 06:00N 39°26' W 075°32'2 4.7
2017-Dec-09 05:30N 39°27' W 075°34'2 4.5
2017-Dec-09 05:00N 39°30' W 075°34'3 5.5
2017-Dec-09 04:30N 39°32' W 075°33'3 6.0
2017-Dec-09 04:00N 39°35' W 075°34'3 6.4
2017-Dec-09 03:30N 39°38' W 075°34'4 7.4
2017-Dec-09 03:00N 39°41' W 075°31'4 7.9
2017-Dec-09 02:30N 39°45' W 075°29'4 7.4
2017-Dec-09 02:00N 39°48' W 075°26'4 7.5
2017-Dec-09 01:30N 39°50' W 075°22'0 0.9
2017-Dec-09 01:00N 39°50' W 075°22'0 0.0
2017-Dec-09 00:30N 39°50' W 075°22'0 0.0
2017-Dec-09 00:00N 39°50' W 075°22'0 0.0
2017-Dec-08 23:30N 39°50' W 075°22'0 0.0
2017-Dec-08 23:00N 39°50' W 075°22'0 0.5
2017-Dec-08 22:30N 39°50' W 075°21'0 0.0
2017-Dec-08 22:00N 39°50' W 075°21'0 0.1
2017-Dec-08 21:30N 39°50' W 075°21'0 0.3
2017-Dec-08 21:00N 39°50' W 075°21'1 1.1
2017-Dec-08 20:30N 39°50' W 075°22'1 1.0
2017-Dec-08 20:00N 39°50' W 075°21'4 8.2
2017-Dec-08 19:30N 39°51' W 075°16'4 7.9
2017-Dec-08 19:00N 39°53' W 075°12'0 0.7
2017-Dec-08 18:31N 39°54' W 075°12'0 0.0
2017-Dec-08 18:00N 39°54' W 075°12'0 0.0
2017-Dec-08 17:30N 39°54' W 075°12'0 0.1
2017-Dec-08 17:00N 39°53' W 075°12'0 0.0
2017-Dec-08 16:30N 39°53' W 075°12'0 0.0
2017-Dec-08 16:00N 39°53' W 075°12'0 0.0
2017-Dec-08 15:30N 39°53' W 075°12'0 0.0
2017-Dec-08 15:00N 39°53' W 075°12'0 0.0
2017-Dec-08 14:30N 39°53' W 075°12'0 0.0
2017-Dec-08 14:00N 39°53' W 075°12'0 0.0
2017-Dec-08 13:30N 39°53' W 075°12'0 0.1
2017-Dec-08 13:00N 39°54' W 075°12'0 0.0
2017-Dec-08 12:30N 39°54' W 075°12'0 0.0
2017-Dec-08 12:00N 39°54' W 075°12'0 0.0
2017-Dec-08 11:30N 39°54' W 075°12'0 0.0
2017-Dec-08 11:00N 39°54' W 075°12'0 0.0
2017-Dec-08 10:30N 39°54' W 075°12'0 0.0
2017-Dec-08 10:00N 39°54' W 075°12'0 0.0
2017-Dec-08 09:31N 39°54' W 075°12'0 0.0
2017-Dec-08 09:00N 39°54' W 075°12'4 7.3
2017-Dec-08 08:31N 39°51' W 075°15'510.7
2017-Dec-08 08:00N 39°50' W 075°22'611.4
2017-Dec-08 07:30N 39°47' W 075°28'612.5
2017-Dec-08 07:00N 39°41' W 075°31'611.3
2017-Dec-08 06:30N 39°36' W 075°34'4 8.3
2017-Dec-08 06:01N 39°33' W 075°38'611.6
2017-Dec-08 05:30N 39°32' W 075°46'3 6.1
2017-Dec-08 05:00N 39°32' W 075°50'611.3
2017-Dec-08 04:30N 39°29' W 075°56'611.7
2017-Dec-08 04:00N 39°25' W 076°02'611.6
2017-Dec-08 03:30N 39°22' W 076°08'611.7
2017-Dec-08 03:00N 39°18' W 076°13'611.7
2017-Dec-08 02:30N 39°12' W 076°16'510.1
2017-Dec-08 02:00N 39°09' W 076°21'510.5
2017-Dec-08 01:30N 39°11' W 076°27'510.3
2017-Dec-08 01:00N 39°14' W 076°33'4 7.2
2017-Dec-08 00:30N 39°16' W 076°36'0 0.1
2017-Dec-08 00:00N 39°17' W 076°36'2 4.6
2017-Dec-07 23:30N 39°15' W 076°34'2 3.1
2017-Dec-07 23:00N 39°14' W 076°33'2 4.6
2017-Dec-07 22:30N 39°12' W 076°31'5 9.0
2017-Dec-07 22:00N 39°10' W 076°25'4 8.8
2017-Dec-07 21:30N 39°09' W 076°20'6 9.5
2017-Dec-07 20:53N 39°13' W 076°15'710.0
2017-Dec-07 20:13N 39°20' W 076°12'210.2
2017-Dec-07 20:00N 39°21' W 076°10'5 9.9
2017-Dec-07 19:30N 39°23' W 076°04'5 9.4
2017-Dec-07 19:00N 39°27' W 075°60'5 9.2
2017-Dec-07 18:30N 39°30' W 075°56'4 8.1
2017-Dec-07 18:00N 39°32' W 075°51'3 6.0
2017-Dec-07 17:30N 39°32' W 075°47'3 6.4
2017-Dec-07 17:01N 39°33' W 075°43'3 5.6
2017-Dec-07 16:30N 39°33' W 075°40'3 6.4
2017-Dec-07 16:01N 39°33' W 075°36'2 4.8
2017-Dec-07 15:30N 39°33' W 075°33'4 8.1
2017-Dec-07 15:00N 39°29' W 075°34'4 8.8
2017-Dec-07 14:30N 39°25' W 075°31'4 8.5
2017-Dec-07 14:01N 39°22' W 075°27'4 8.0
2017-Dec-07 13:30N 39°19' W 075°24'5 9.8
2017-Dec-07 12:59N 39°15' W 075°19'3 5.8
2017-Dec-07 12:30N 39°13' W 075°17'4 8.6
2017-Dec-07 12:00N 39°09' W 075°15'4 7.6
2017-Dec-07 11:29N 39°06' W 075°12'4 8.0
2017-Dec-07 10:59N 39°02' W 075°09'51 5.7
2017-Dec-07 01:58N 39°27' W 074°11'5 8.5
2017-Dec-07 01:26N 39°31' W 074°08'4 8.5
2017-Dec-07 01:00N 39°34' W 074°06'4 8.7
2017-Dec-07 00:30N 39°38' W 074°03'4 8.6
2017-Dec-07 00:00N 39°42' W 074°01'4 8.7
2017-Dec-06 23:30N 39°46' W 073°58'  

Dump ship's entire track history